Time;durP1;ratioP1;P1;durP2;ratioP2;P2;SDS_P1;SDS_P2;PMS_P1;PMS_P2;Temp;Humidity;BMP_temperature;BMP_pressure;BME280_temperature;BME280_humidity;BME280_pressure;Samples;Min_cycle;Max_cycle;Signal;HPM_P1;HPM_P2
2021/12/08 00:01:42;;;;;;;1.50;0.70;;;;;;;;;;5085484;28;20028;-30
2021/12/08 00:04:07;;;;;;;0.57;0.50;;;;;;;;;;5086018;28;20034;-30
2021/12/08 00:06:33;;;;;;;2.03;0.68;;;;;;;;;;5085147;28;20525;-31
2021/12/08 00:09:16;;;;;;;0.70;0.50;;;;;;;;;;5085851;28;20732;-34
2021/12/08 00:14:25;;;;;;;1.13;0.70;;;;;;;;;;5085237;28;20120;-34
2021/12/08 00:16:51;;;;;;;0.95;0.70;;;;;;;;;;5085617;28;20111;-29
2021/12/08 00:19:16;;;;;;;1.02;0.60;;;;;;;;;;5085461;28;20036;-30
2021/12/08 00:21:42;;;;;;;1.10;0.75;;;;;;;;;;5085572;28;20035;-32
2021/12/08 00:24:07;;;;;;;1.52;0.80;;;;;;;;;;5085823;28;20028;-30
2021/12/08 00:26:33;;;;;;;0.65;0.60;;;;;;;;;;5085091;28;20478;-31
2021/12/08 00:28:58;;;;;;;0.77;0.50;;;;;;;;;;5085434;28;20051;-28
2021/12/08 00:31:24;;;;;;;0.88;0.60;;;;;;;;;;5084828;28;20031;-35
2021/12/08 00:33:49;;;;;;;1.13;0.80;;;;;;;;;;5084024;28;20036;-29
2021/12/08 00:36:17;;;;;;;1.23;0.80;;;;;;;;;;5085154;28;20020;-30
2021/12/08 00:38:42;;;;;;;0.77;0.55;;;;;;;;;;5067264;28;20028;-32
2021/12/08 00:41:08;;;;;;;0.90;0.70;;;;;;;;;;5085135;28;20107;-31
2021/12/08 00:43:33;;;;;;;1.27;0.77;;;;;;;;;;5085671;28;20028;-27
2021/12/08 00:45:59;;;;;;;0.90;0.60;;;;;;;;;;5085398;28;20027;-31
2021/12/08 00:48:25;;;;;;;1.70;0.68;;;;;;;;;;5085198;28;20514;-31
2021/12/08 00:50:50;;;;;;;1.67;0.60;;;;;;;;;;5084815;28;20761;-32
2021/12/08 00:53:16;;;;;;;0.70;0.60;;;;;;;;;;5084848;28;20038;-30
2021/12/08 00:55:42;;;;;;;0.70;0.55;;;;;;;;;;5084998;28;20031;-30
2021/12/08 00:58:07;;;;;;;1.92;0.90;;;;;;;;;;5084503;28;20477;-33
2021/12/08 01:00:36;;;;;;;0.73;0.50;;;;;;;;;;5085114;28;20036;-31
2021/12/08 01:03:01;;;;;;;0.70;0.55;;;;;;;;;;5084735;28;20028;-27
2021/12/08 01:05:34;;;;;;;1.15;0.70;;;;;;;;;;5084416;28;20491;-29
2021/12/08 01:08:00;;;;;;;1.05;0.70;;;;;;;;;;5084392;28;20028;-34
2021/12/08 01:10:27;;;;;;;0.57;0.50;;;;;;;;;;5084517;28;20036;-29
2021/12/08 01:12:52;;;;;;;0.80;0.52;;;;;;;;;;5084310;28;20481;-32
2021/12/08 01:15:18;;;;;;;1.35;0.60;;;;;;;;;;5084220;28;20044;-29
2021/12/08 01:17:44;;;;;;;0.50;0.47;;;;;;;;;;5085367;28;20035;-30
2021/12/08 01:20:10;;;;;;;1.08;0.60;;;;;;;;;;5084319;28;20031;-33
2021/12/08 01:22:37;;;;;;;1.15;0.75;;;;;;;;;;5083706;28;20035;-29
2021/12/08 01:25:03;;;;;;;0.65;0.50;;;;;;;;;;5084394;28;20024;-30
2021/12/08 01:27:30;;;;;;;1.17;0.80;;;;;;;;;;5083863;28;20048;-31
2021/12/08 01:29:58;;;;;;;0.88;0.60;;;;;;;;;;5083836;28;20035;-29
2021/12/08 01:32:23;;;;;;;1.45;0.70;;;;;;;;;;5082930;28;20024;-33
2021/12/08 01:34:51;;;;;;;1.35;0.80;;;;;;;;;;5083705;28;20032;-37
2021/12/08 01:37:17;;;;;;;1.23;0.70;;;;;;;;;;5084389;28;20040;-29
2021/12/08 01:39:42;;;;;;;0.80;0.43;;;;;;;;;;5064897;28;20107;-36
2021/12/08 01:42:15;;;;;;;0.50;0.40;;;;;;;;;;5083508;28;20058;-34
2021/12/08 01:47:27;;;;;;;0.80;0.50;;;;;;;;;;5083631;28;20047;-31
2021/12/08 01:49:52;;;;;;;0.98;0.50;;;;;;;;;;5083869;28;20103;-32
2021/12/08 01:52:18;;;;;;;1.00;0.77;;;;;;;;;;5083514;28;20115;-28
2021/12/08 01:54:43;;;;;;;0.90;0.70;;;;;;;;;;5083875;28;20024;-28
2021/12/08 01:57:09;;;;;;;1.00;0.70;;;;;;;;;;5083282;28;20024;-31
2021/12/08 01:59:34;;;;;;;0.45;0.40;;;;;;;;;;5083262;28;20052;-34
2021/12/08 02:02:00;;;;;;;0.60;0.40;;;;;;;;;;5083060;28;20043;-30
2021/12/08 02:04:25;;;;;;;1.38;0.52;;;;;;;;;;5083000;28;20254;-31
2021/12/08 02:06:51;;;;;;;2.30;0.80;;;;;;;;;;5083726;28;20032;-31
2021/12/08 02:09:16;;;;;;;0.68;0.45;;;;;;;;;;5083721;28;20498;-30
2021/12/08 02:11:45;;;;;;;1.25;0.60;;;;;;;;;;5082246;28;21003;-32
2021/12/08 02:14:11;;;;;;;1.17;0.55;;;;;;;;;;5081162;28;20051;-33
2021/12/08 02:16:36;;;;;;;0.70;0.60;;;;;;;;;;5062937;28;20036;-32
2021/12/08 02:19:02;;;;;;;0.77;0.52;;;;;;;;;;5063385;28;20036;-28
2021/12/08 02:21:34;;;;;;;2.15;0.50;;;;;;;;;;5063217;28;20723;-30
2021/12/08 02:24:04;;;;;;;1.67;0.77;;;;;;;;;;5063025;28;20028;-34
2021/12/08 02:26:30;;;;;;;1.00;0.57;;;;;;;;;;5062915;28;20036;-34
2021/12/08 02:28:56;;;;;;;1.00;0.55;;;;;;;;;;5078135;28;20052;-34
2021/12/08 02:31:51;;;;;;;1.02;0.52;;;;;;;;;;5083521;28;20032;-30
2021/12/08 02:47:55;;;;;;;0.80;0.70;;;;;;;;;;5063062;28;20043;-33
2021/12/08 02:50:32;;;;;;;0.68;0.50;;;;;;;;;;5062650;28;20024;-29
2021/12/08 02:52:58;;;;;;;0.70;0.50;;;;;;;;;;5062665;28;20055;-31
2021/12/08 02:55:25;;;;;;;1.05;0.77;;;;;;;;;;5062324;28;20590;-31
2021/12/08 02:57:50;;;;;;;0.73;0.50;;;;;;;;;;5061996;28;20036;-34
2021/12/08 03:00:20;;;;;;;0.73;0.50;;;;;;;;;;5062579;28;20036;-32
2021/12/08 03:02:45;;;;;;;1.05;0.70;;;;;;;;;;5062456;28;20448;-29
2021/12/08 03:05:10;;;;;;;0.63;0.40;;;;;;;;;;5062423;28;20468;-33
2021/12/08 03:07:37;;;;;;;0.50;0.40;;;;;;;;;;5080690;28;20835;-31
2021/12/08 03:10:07;;;;;;;1.13;0.60;;;;;;;;;;5082617;28;20024;-30
2021/12/08 03:12:32;;;;;;;0.70;0.50;;;;;;;;;;5082850;28;20180;-29
2021/12/08 03:14:58;;;;;;;0.90;0.60;;;;;;;;;;5055625;28;20040;-32
2021/12/08 03:17:23;;;;;;;1.30;0.73;;;;;;;;;;5062648;28;20036;-30
2021/12/08 03:19:49;;;;;;;1.63;0.82;;;;;;;;;;5062257;28;20511;-31
2021/12/08 03:22:14;;;;;;;0.52;0.43;;;;;;;;;;5061627;28;20035;-31
2021/12/08 03:24:43;;;;;;;1.38;0.40;;;;;;;;;;5061297;28;20051;-29
2021/12/08 03:27:13;;;;;;;0.70;0.52;;;;;;;;;;5061991;28;20056;-29
2021/12/08 03:30:12;;;;;;;0.30;0.30;;;;;;;;;;5061853;28;20033;-33
2021/12/08 03:32:39;;;;;;;0.77;0.60;;;;;;;;;;5062113;28;20036;-30
2021/12/08 03:35:06;;;;;;;0.85;0.52;;;;;;;;;;5061719;28;20036;-30
2021/12/08 03:37:39;;;;;;;0.52;0.40;;;;;;;;;;5062243;28;20506;-33
2021/12/08 03:40:08;;;;;;;0.85;0.38;;;;;;;;;;5062126;28;20094;-29
2021/12/08 03:42:37;;;;;;;0.93;0.55;;;;;;;;;;5061896;28;20502;-28
2021/12/08 03:45:07;;;;;;;0.68;0.60;;;;;;;;;;5061829;28;20099;-33
2021/12/08 03:47:32;;;;;;;0.50;0.40;;;;;;;;;;5062172;28;20029;-32
2021/12/08 03:49:59;;;;;;;0.88;0.50;;;;;;;;;;5061938;28;20509;-32
2021/12/08 03:52:25;;;;;;;0.80;0.50;;;;;;;;;;5062253;28;20518;-31
2021/12/08 03:54:50;;;;;;;0.95;0.52;;;;;;;;;;5062399;28;20141;-29
2021/12/08 03:57:16;;;;;;;0.82;0.60;;;;;;;;;;5062168;28;20431;-29
2021/12/08 03:59:41;;;;;;;1.02;0.43;;;;;;;;;;5061783;28;20032;-31
2021/12/08 04:02:07;;;;;;;0.68;0.50;;;;;;;;;;5062516;28;20036;-30
2021/12/08 04:04:41;;;;;;;0.80;0.60;;;;;;;;;;5065545;28;20035;-31
2021/12/08 04:07:07;;;;;;;0.60;0.40;;;;;;;;;;5080904;28;20040;-31
2021/12/08 04:09:39;;;;;;;0.63;0.50;;;;;;;;;;5086287;28;20371;-29
2021/12/08 04:12:05;;;;;;;0.82;0.60;;;;;;;;;;5085682;28;20032;-34
2021/12/08 04:14:34;;;;;;;0.68;0.40;;;;;;;;;;5084948;28;20047;-31
2021/12/08 04:17:06;;;;;;;0.70;0.50;;;;;;;;;;5085742;28;20050;-32
2021/12/08 04:19:32;;;;;;;0.52;0.40;;;;;;;;;;5085758;28;20027;-28
2021/12/08 04:21:59;;;;;;;0.73;0.40;;;;;;;;;;5085632;28;20378;-28
2021/12/08 04:24:25;;;;;;;0.40;0.35;;;;;;;;;;5085617;28;20024;-30
2021/12/08 04:26:56;;;;;;;1.17;0.60;;;;;;;;;;5085010;28;20074;-29
2021/12/08 04:29:27;;;;;;;0.40;0.32;;;;;;;;;;5084525;28;20227;-31
2021/12/08 04:31:53;;;;;;;0.68;0.50;;;;;;;;;;5084930;28;20476;-29
2021/12/08 04:34:25;;;;;;;0.60;0.50;;;;;;;;;;5084725;28;20730;-33
2021/12/08 04:36:51;;;;;;;0.40;0.30;;;;;;;;;;5084701;28;20019;-29
2021/12/08 04:39:23;;;;;;;0.90;0.50;;;;;;;;;;5085142;28;20039;-32
2021/12/08 04:41:55;;;;;;;0.60;0.40;;;;;;;;;;5085360;28;20115;-32
2021/12/08 04:44:47;;;;;;;0.50;0.47;;;;;;;;;;5085024;28;20273;-30
2021/12/08 04:47:29;;;;;;;0.93;0.65;;;;;;;;;;5084475;28;20032;-32
2021/12/08 04:52:52;;;;;;;0.50;0.40;;;;;;;;;;5084820;28;20032;-28
2021/12/08 05:08:43;;;;;;;0.40;0.40;;;;;;;;;;5085095;28;20028;-35
2021/12/08 05:11:23;;;;;;;0.70;0.52;;;;;;;;;;5084659;28;20024;-34
2021/12/08 05:13:51;;;;;;;0.73;0.50;;;;;;;;;;5089614;28;20043;-30
2021/12/08 05:16:17;;;;;;;2.03;0.77;;;;;;;;;;5082922;28;20046;-30
2021/12/08 05:18:44;;;;;;;1.15;0.57;;;;;;;;;;5084034;28;20032;-32
2021/12/08 05:21:19;;;;;;;0.60;0.47;;;;;;;;;;5083555;28;20067;-30
2021/12/08 05:23:57;;;;;;;0.80;0.60;;;;;;;;;;5072832;28;20032;-33
2021/12/08 05:26:35;;;;;;;4.82;0.98;;;;;;;;;;5083250;28;20540;-32
2021/12/08 05:29:21;;;;;;;8.20;1.10;;;;;;;;;;5080248;28;20055;-27
2021/12/08 05:31:48;;;;;;;2.97;0.70;;;;;;;;;;5082761;28;20386;-30
2021/12/08 05:34:15;;;;;;;4.72;0.88;;;;;;;;;;5066502;28;20036;-30
2021/12/08 05:36:41;;;;;;;4.80;0.95;;;;;;;;;;5083931;28;20028;-29
2021/12/08 05:39:10;;;;;;;3.78;0.98;;;;;;;;;;5075664;28;20627;-31
2021/12/08 05:41:38;;;;;;;7.20;1.50;;;;;;;;;;5084179;28;20445;-31
2021/12/08 05:44:04;;;;;;;11.27;1.40;;;;;;;;;;5054288;28;20040;-32
2021/12/08 05:46:31;;;;;;;7.40;4.30;;;;;;;;;;5082004;28;20040;-29
2021/12/08 05:48:58;;;;;;;12.95;4.25;;;;;;;;;;5078845;28;20127;-29
2021/12/08 05:51:32;;;;;;;13.70;3.72;;;;;;;;;;5069806;28;20040;-29
2021/12/08 05:54:00;;;;;;;4.68;2.90;;;;;;;;;;5082233;28;20040;-32
2021/12/08 05:56:29;;;;;;;12.48;2.88;;;;;;;;;;5058939;28;20047;-30
2021/12/08 05:58:56;;;;;;;11.70;3.40;;;;;;;;;;5067112;28;20031;-30
2021/12/08 06:01:43;;;;;;;12.82;2.90;;;;;;;;;;5059243;28;20502;-32
2021/12/08 06:04:09;;;;;;;11.52;3.45;;;;;;;;;;5053592;28;20036;-30
2021/12/08 06:06:35;;;;;;;5.00;2.58;;;;;;;;;;5063474;28;20130;-28
2021/12/08 06:09:05;;;;;;;6.97;2.67;;;;;;;;;;5076583;28;20101;-31
2021/12/08 06:11:31;;;;;;;4.63;2.63;;;;;;;;;;5047721;28;20404;-29
2021/12/08 06:13:59;;;;;;;5.65;2.63;;;;;;;;;;5091234;28;20040;-28
2021/12/08 06:16:31;;;;;;;4.25;2.30;;;;;;;;;;5062743;28;20043;-30
2021/12/08 06:18:57;;;;;;;4.03;2.40;;;;;;;;;;5062372;28;20555;-30
2021/12/08 06:21:24;;;;;;;4.88;3.08;;;;;;;;;;5063007;28;20021;-32
2021/12/08 06:23:50;;;;;;;3.65;2.40;;;;;;;;;;5063186;28;20029;-31
2021/12/08 06:26:17;;;;;;;6.47;2.40;;;;;;;;;;5063254;28;20035;-29
2021/12/08 06:28:42;;;;;;;4.65;2.50;;;;;;;;;;5062782;28;20049;-30
2021/12/08 06:31:08;;;;;;;4.00;2.60;;;;;;;;;;5062299;28;20082;-29
2021/12/08 06:33:34;;;;;;;3.38;2.13;;;;;;;;;;5061257;28;20032;-31
2021/12/08 06:36:03;;;;;;;4.65;2.63;;;;;;;;;;5062160;28;20036;-31
2021/12/08 06:38:29;;;;;;;5.60;2.65;;;;;;;;;;5061802;28;20021;-31
2021/12/08 06:41:04;;;;;;;7.72;2.30;;;;;;;;;;5062446;28;20027;-33
2021/12/08 06:43:33;;;;;;;3.42;2.67;;;;;;;;;;5061826;28;20031;-34
2021/12/08 06:45:59;;;;;;;4.70;2.75;;;;;;;;;;5061937;28;20029;-31
2021/12/08 06:48:30;;;;;;;4.05;2.80;;;;;;;;;;5063108;28;20414;-34
2021/12/08 06:51:06;;;;;;;3.85;2.40;;;;;;;;;;5063634;28;20024;-33
2021/12/08 06:53:31;;;;;;;2.97;2.47;;;;;;;;;;5063006;28;20036;-32
2021/12/08 06:56:01;;;;;;;3.75;2.70;;;;;;;;;;5062401;28;20067;-34
2021/12/08 06:58:27;;;;;;;3.30;2.33;;;;;;;;;;5062467;28;20153;-33
2021/12/08 07:09:21;;;;;;;3.20;2.30;;;;;;;;;;5047061;28;20534;-33
2021/12/08 07:11:48;;;;;;;3.45;2.03;;;;;;;;;;5072730;28;20039;-29
2021/12/08 07:14:15;;;;;;;3.42;2.50;;;;;;;;;;5080929;28;20042;-29
2021/12/08 07:16:43;;;;;;;4.03;2.20;;;;;;;;;;5076498;28;20031;-34
2021/12/08 07:19:35;;;;;;;8.90;2.47;;;;;;;;;;5081146;28;20594;-29
2021/12/08 07:22:04;;;;;;;3.42;2.35;;;;;;;;;;5062969;28;20039;-32
2021/12/08 07:24:32;;;;;;;2.83;2.10;;;;;;;;;;5071207;28;20042;-32
2021/12/08 07:27:02;;;;;;;3.88;2.35;;;;;;;;;;5071663;28;20908;-29
2021/12/08 07:29:30;;;;;;;6.10;2.38;;;;;;;;;;5071155;28;20044;-28
2021/12/08 07:32:00;;;;;;;8.75;2.78;;;;;;;;;;5076488;28;20437;-29
2021/12/08 07:34:27;;;;;;;11.07;5.15;;;;;;;;;;5074392;28;20029;-28
2021/12/08 07:36:59;;;;;;;17.20;8.88;;;;;;;;;;5072084;28;20040;-32
2021/12/08 07:39:28;;;;;;;17.03;9.23;;;;;;;;;;5060406;28;20409;-29
2021/12/08 07:41:58;;;;;;;18.27;9.60;;;;;;;;;;5074947;28;20660;-30
2021/12/08 07:44:24;;;;;;;23.38;17.23;;;;;;;;;;5083720;28;20580;-29
2021/12/08 07:46:52;;;;;;;28.88;19.02;;;;;;;;;;5070281;28;20024;-34
2021/12/08 07:49:28;;;;;;;36.35;25.40;;;;;;;;;;5075572;28;21534;-31
2021/12/08 07:52:05;;;;;;;38.28;28.13;;;;;;;;;;5064658;28;20033;-31
2021/12/08 07:54:32;;;;;;;48.38;34.72;;;;;;;;;;5068396;28;20036;-32
2021/12/08 07:56:58;;;;;;;52.53;37.45;;;;;;;;;;5079451;28;20032;-34
2021/12/08 07:59:24;;;;;;;53.28;39.17;;;;;;;;;;5085550;28;20044;-30
2021/12/08 08:01:52;;;;;;;56.45;42.85;;;;;;;;;;5075134;28;20036;-35
2021/12/08 08:04:19;;;;;;;52.42;39.80;;;;;;;;;;5065637;28;20123;-30
2021/12/08 08:06:47;;;;;;;53.80;41.80;;;;;;;;;;5082800;28;20115;-31
2021/12/08 08:09:22;;;;;;;56.13;41.17;;;;;;;;;;5081074;28;20035;-31
2021/12/08 08:11:55;;;;;;;54.47;43.72;;;;;;;;;;5083724;28;20119;-28
2021/12/08 08:14:20;;;;;;;;;;;;;;;;;;5066243;28;20539;-31
2021/12/08 08:16:50;;;;;;;50.47;38.70;;;;;;;;;;5071716;28;20068;-29
2021/12/08 08:19:18;;;;;;;53.92;40.30;;;;;;;;;;5080159;28;20039;-31
2021/12/08 08:21:46;;;;;;;53.15;38.85;;;;;;;;;;5075015;28;20031;-31
2021/12/08 08:24:12;;;;;;;47.55;36.22;;;;;;;;;;5084799;28;20032;-29
2021/12/08 08:26:38;;;;;;;46.72;36.55;;;;;;;;;;5074156;28;20047;-29
2021/12/08 08:29:04;;;;;;;43.35;35.65;;;;;;;;;;5074806;28;20072;-34
2021/12/08 08:31:53;;;;;;;41.13;34.08;;;;;;;;;;5063953;28;20028;-34
2021/12/08 08:34:19;;;;;;;44.78;33.63;;;;;;;;;;5064175;28;20044;-31
2021/12/08 08:36:46;;;;;;;43.72;34.13;;;;;;;;;;5064334;28;20028;-31
2021/12/08 08:39:20;;;;;;;40.80;32.55;;;;;;;;;;5064662;28;20036;-29
2021/12/08 08:41:50;;;;;;;38.50;31.33;;;;;;;;;;5064811;28;20030;-31
2021/12/08 08:44:24;;;;;;;41.08;30.98;;;;;;;;;;5064723;28;20029;-33
2021/12/08 08:46:50;;;;;;;40.38;31.27;;;;;;;;;;5063391;28;20025;-29
2021/12/08 08:49:18;;;;;;;40.15;29.45;;;;;;;;;;5063260;28;20055;-30
2021/12/08 08:51:50;;;;;;;41.38;30.00;;;;;;;;;;5063152;28;20028;-29
2021/12/08 08:54:21;;;;;;;35.38;26.70;;;;;;;;;;5062737;28;20586;-32
2021/12/08 08:56:55;;;;;;;37.55;26.95;;;;;;;;;;5063201;28;20524;-29
2021/12/08 08:59:25;;;;;;;37.25;26.75;;;;;;;;;;5077520;28;20039;-32
2021/12/08 09:01:51;;;;;;;34.42;26.98;;;;;;;;;;5081905;28;20036;-29
2021/12/08 09:04:20;;;;;;;33.58;26.20;;;;;;;;;;5076261;28;20025;-30
2021/12/08 09:06:48;;;;;;;31.77;26.33;;;;;;;;;;5064587;28;20612;-30
2021/12/08 09:09:18;;;;;;;33.50;25.58;;;;;;;;;;5073076;28;20039;-29
2021/12/08 09:11:57;;;;;;;28.35;22.05;;;;;;;;;;5081420;28;20075;-34
2021/12/08 09:14:30;;;;;;;28.88;22.20;;;;;;;;;;5083814;28;20040;-32
2021/12/08 09:17:00;;;;;;;30.20;22.15;;;;;;;;;;5083757;28;20514;-30
2021/12/08 09:19:30;;;;;;;27.45;20.75;;;;;;;;;;5083642;28;20024;-31
2021/12/08 09:21:59;;;;;;;29.50;20.55;;;;;;;;;;5083002;28;20035;-34
2021/12/08 09:24:48;;;;;;;28.80;20.95;;;;;;;;;;5082789;28;20028;-32
2021/12/08 09:27:17;;;;;;;27.13;20.05;;;;;;;;;;5073188;28;20740;-31
2021/12/08 09:29:46;;;;;;;25.63;19.98;;;;;;;;;;5082915;28;20063;-31
2021/12/08 09:32:19;;;;;;;25.10;20.02;;;;;;;;;;5083217;28;20144;-34
2021/12/08 09:34:59;;;;;;;24.70;19.27;;;;;;;;;;5082704;28;20116;-33
2021/12/08 09:37:31;;;;;;;25.33;19.33;;;;;;;;;;5071783;28;20507;-32
2021/12/08 09:40:12;;;;;;;22.45;18.70;;;;;;;;;;5062594;28;20039;-32
2021/12/08 09:42:40;;;;;;;23.88;19.17;;;;;;;;;;5063224;28;20128;-34
2021/12/08 09:45:09;;;;;;;22.65;18.42;;;;;;;;;;5062993;28;20025;-31
2021/12/08 09:47:34;;;;;;;22.48;17.38;;;;;;;;;;5063016;28;20040;-29
2021/12/08 09:50:01;;;;;;;23.63;18.08;;;;;;;;;;5063083;28;20451;-30
2021/12/08 09:52:27;;;;;;;21.98;16.83;;;;;;;;;;5063111;28;20152;-27
2021/12/08 09:54:57;;;;;;;22.25;17.48;;;;;;;;;;5062910;28;20032;-28
2021/12/08 09:57:23;;;;;;;22.02;17.02;;;;;;;;;;5063683;28;20036;-31
2021/12/08 09:59:49;;;;;;;21.33;16.23;;;;;;;;;;5062640;28;20029;-31
2021/12/08 10:02:24;;;;;;;19.80;16.15;;;;;;;;;;5063482;28;20029;-30
2021/12/08 10:04:49;;;;;;;20.98;16.33;;;;;;;;;;5063860;28;20036;-30
2021/12/08 10:07:15;;;;;;;23.92;16.55;;;;;;;;;;5062982;28;20528;-28
2021/12/08 10:09:41;;;;;;;20.58;15.85;;;;;;;;;;5045317;28;20039;-29
2021/12/08 10:12:06;;;;;;;19.17;15.40;;;;;;;;;;5044995;28;20020;-29
2021/12/08 10:14:32;;;;;;;20.30;15.05;;;;;;;;;;5062934;28;20048;-34
2021/12/08 10:16:57;;;;;;;19.65;15.88;;;;;;;;;;5063462;28;20039;-30
2021/12/08 10:19:23;;;;;;;17.35;15.05;;;;;;;;;;5063125;28;20481;-31
2021/12/08 10:21:49;;;;;;;17.88;14.90;;;;;;;;;;5062877;28;20028;-30
2021/12/08 10:24:16;;;;;;;18.30;14.70;;;;;;;;;;5045023;28;20032;-29
2021/12/08 10:26:41;;;;;;;17.50;14.55;;;;;;;;;;5062928;28;20529;-28
2021/12/08 10:29:07;;;;;;;16.95;14.00;;;;;;;;;;5074633;28;20052;-30
2021/12/08 10:31:39;;;;;;;18.17;14.23;;;;;;;;;;5083233;28;20024;-33
2021/12/08 10:35:06;;;;;;;14.43;12.50;;;;;;;;;;5082988;28;20032;-34
2021/12/08 10:37:32;;;;;;;15.15;13.07;;;;;;;;;;5082088;28;20051;-33
2021/12/08 10:39:59;;;;;;;16.20;13.40;;;;;;;;;;5082511;28;20114;-30
2021/12/08 10:42:33;;;;;;;17.45;14.10;;;;;;;;;;5048265;28;20070;-34
2021/12/08 10:45:30;;;;;;;16.77;12.52;;;;;;;;;;5082788;28;20113;-29
2021/12/08 10:48:11;;;;;;;14.35;12.65;;;;;;;;;;5053113;28;20097;-33
2021/12/08 10:56:43;;;;;;;14.05;12.18;;;;;;;;;;5046554;28;20043;-30
2021/12/08 10:59:21;;;;;;;14.00;11.98;;;;;;;;;;5081722;28;20118;-31
2021/12/08 11:02:09;;;;;;;14.35;11.60;;;;;;;;;;5082168;28;20075;-34
2021/12/08 11:04:43;;;;;;;14.30;11.60;;;;;;;;;;5081750;28;20162;-31
2021/12/08 11:07:12;;;;;;;13.48;11.45;;;;;;;;;;5082120;28;20063;-30
2021/12/08 11:09:55;;;;;;;;;;;;;;;;;;;;;
2021/12/08 11:13:09;;;;;;;14.05;10.93;;;;;;;;;;5070381;28;20123;-31
2021/12/08 11:15:47;;;;;;;14.88;11.65;;;;;;;;;;5003640;28;20121;-34
2021/12/08 11:18:38;;;;;;;13.85;11.07;;;;;;;;;;5083025;28;20040;-28
2021/12/08 11:21:29;;;;;;;13.35;11.35;;;;;;;;;;5086429;28;20028;-30
2021/12/08 11:24:23;;;;;;;12.68;11.32;;;;;;;;;;5071598;28;20128;-34
2021/12/08 11:27:08;;;;;;;11.73;10.30;;;;;;;;;;5086273;28;20073;-33
2021/12/08 11:29:49;;;;;;;14.23;11.30;;;;;;;;;;5086464;28;20108;-38
2021/12/08 11:32:41;;;;;;;12.32;10.20;;;;;;;;;;5086367;28;20411;-31
2021/12/08 11:35:35;;;;;;;14.20;10.75;;;;;;;;;;5082999;28;20127;-31
2021/12/08 11:38:01;;;;;;;12.27;10.43;;;;;;;;;;5070858;28;20071;-29
2021/12/08 11:40:41;;;;;;;12.15;10.35;;;;;;;;;;5082544;28;20047;-35
2021/12/08 11:43:33;;;;;;;12.75;10.57;;;;;;;;;;5069437;28;20039;-30
2021/12/08 11:46:15;;;;;;;12.18;10.38;;;;;;;;;;5082062;28;20040;-30
2021/12/08 11:49:04;;;;;;;11.05;9.82;;;;;;;;;;5085805;28;20559;-34
2021/12/08 11:51:42;;;;;;;11.55;9.40;;;;;;;;;;5085864;28;20513;-31
2021/12/08 11:54:08;;;;;;;11.57;9.70;;;;;;;;;;5085858;28;20043;-30
2021/12/08 11:56:40;;;;;;;11.57;9.80;;;;;;;;;;5080382;28;20024;-27
2021/12/08 11:59:07;;;;;;;12.30;9.63;;;;;;;;;;5066087;28;20025;-31
2021/12/08 12:01:34;;;;;;;11.70;10.02;;;;;;;;;;5065660;28;20035;-32
2021/12/08 12:03:59;;;;;;;10.85;9.45;;;;;;;;;;5065914;28;20724;-32
2021/12/08 12:06:28;;;;;;;11.23;9.38;;;;;;;;;;5067175;28;20029;-32
2021/12/08 12:08:57;;;;;;;11.85;10.23;;;;;;;;;;5064993;28;20165;-31
2021/12/08 12:11:27;;;;;;;11.52;9.13;;;;;;;;;;5065407;28;20036;-30
2021/12/08 12:13:54;;;;;;;11.02;9.88;;;;;;;;;;5065528;28;20032;-31
2021/12/08 12:16:19;;;;;;;11.07;9.43;;;;;;;;;;5065280;28;20032;-32
2021/12/08 12:18:45;;;;;;;11.05;9.35;;;;;;;;;;5065669;28;20735;-30
2021/12/08 12:21:31;;;;;;;10.15;9.05;;;;;;;;;;5046807;28;20020;-34
2021/12/08 12:24:33;;;;;;;10.82;9.23;;;;;;;;;;5064411;28;20494;-30
2021/12/08 12:27:14;;;;;;;10.15;8.98;;;;;;;;;;5064501;28;20036;-31
2021/12/08 12:29:53;;;;;;;9.85;8.27;;;;;;;;;;5064833;28;20521;-29
2021/12/08 12:32:22;;;;;;;11.10;9.27;;;;;;;;;;5046935;28;20506;-33
2021/12/08 12:34:52;;;;;;;10.10;8.93;;;;;;;;;;5065075;28;20037;-30
2021/12/08 12:37:18;;;;;;;11.82;9.73;;;;;;;;;;5064546;28;20040;-30
2021/12/08 12:39:51;;;;;;;10.25;8.85;;;;;;;;;;5065157;28;20036;-31
2021/12/08 12:42:18;;;;;;;10.35;9.20;;;;;;;;;;5065172;28;20032;-30
2021/12/08 12:45:06;;;;;;;10.70;8.55;;;;;;;;;;5064842;28;20101;-31
2021/12/08 12:47:32;;;;;;;10.50;8.65;;;;;;;;;;5064608;28;20036;-30
2021/12/08 12:50:00;;;;;;;11.82;9.60;;;;;;;;;;5064550;28;20029;-32
2021/12/08 12:52:37;;;;;;;10.45;8.38;;;;;;;;;;5064407;28;20036;-29
2021/12/08 12:55:11;;;;;;;9.52;8.30;;;;;;;;;;5064333;28;20059;-30
2021/12/08 12:58:02;;;;;;;10.65;8.80;;;;;;;;;;5082016;28;20255;-30
2021/12/08 13:00:29;;;;;;;11.25;9.23;;;;;;;;;;5084559;28;20085;-29
2021/12/08 13:02:54;;;;;;;12.20;9.63;;;;;;;;;;5084348;28;20333;-32
2021/12/08 13:05:20;;;;;;;12.43;9.05;;;;;;;;;;5057009;28;20438;-32
2021/12/08 13:07:56;;;;;;;11.05;9.27;;;;;;;;;;5064707;28;20119;-32
2021/12/08 13:10:29;;;;;;;12.93;10.50;;;;;;;;;;5064386;28;20111;-29
2021/12/08 13:13:11;;;;;;;11.02;9.70;;;;;;;;;;5064140;28;20085;-33
2021/12/08 13:15:38;;;;;;;11.93;9.35;;;;;;;;;;5064266;28;20032;-31
2021/12/08 13:18:12;;;;;;;10.43;8.93;;;;;;;;;;5064290;28;20036;-31
2021/12/08 13:20:46;;;;;;;11.90;10.15;;;;;;;;;;5063688;28;20518;-29
2021/12/08 13:23:17;;;;;;;12.27;9.80;;;;;;;;;;5063943;28;20524;-32
2021/12/08 13:25:45;;;;;;;10.70;9.23;;;;;;;;;;5064043;28;20036;-30
2021/12/08 13:28:30;;;;;;;10.48;9.35;;;;;;;;;;5063766;28;20809;-29
2021/12/08 13:31:37;;;;;;;10.85;9.13;;;;;;;;;;5064073;28;20029;-31
2021/12/08 13:34:11;;;;;;;11.07;8.90;;;;;;;;;;5063384;28;20560;-31
2021/12/08 13:36:38;;;;;;;10.93;9.15;;;;;;;;;;5063564;28;20035;-32
2021/12/08 13:39:03;;;;;;;10.80;9.18;;;;;;;;;;5063586;28;20123;-31
2021/12/08 13:41:31;;;;;;;12.55;9.93;;;;;;;;;;5063372;28;20138;-30
2021/12/08 13:43:57;;;;;;;13.82;9.70;;;;;;;;;;5063386;28;20038;-31
2021/12/08 13:46:44;;;;;;;10.75;9.35;;;;;;;;;;5062462;28;20050;-30
2021/12/08 13:49:18;;;;;;;10.68;9.25;;;;;;;;;;5063106;28;20089;-34
2021/12/08 13:52:07;;;;;;;10.25;9.07;;;;;;;;;;5063327;28;20020;-30
2021/12/08 13:54:34;;;;;;;9.63;8.35;;;;;;;;;;5063280;28;20028;-34
2021/12/08 13:57:00;;;;;;;10.05;8.93;;;;;;;;;;5063396;28;20801;-29
2021/12/08 13:59:47;;;;;;;10.70;8.98;;;;;;;;;;5044966;28;20036;-34
2021/12/08 14:02:27;;;;;;;11.30;9.23;;;;;;;;;;5063487;28;20458;-31
2021/12/08 14:05:09;;;;;;;9.48;8.30;;;;;;;;;;5069307;28;20479;-35
2021/12/08 14:07:36;;;;;;;11.05;8.88;;;;;;;;;;5082659;28;20104;-29
2021/12/08 14:10:06;;;;;;;12.00;9.30;;;;;;;;;;5082863;28;20078;-34
2021/12/08 14:12:41;;;;;;;10.13;8.25;;;;;;;;;;5083546;28;20016;-30
2021/12/08 14:15:07;;;;;;;11.38;8.75;;;;;;;;;;5083571;28;20032;-34
2021/12/08 14:17:33;;;;;;;10.38;8.65;;;;;;;;;;5083335;28;20024;-34
2021/12/08 14:19:58;;;;;;;10.90;9.00;;;;;;;;;;5082421;28;20028;-34
2021/12/08 14:22:40;;;;;;;10.85;9.27;;;;;;;;;;5083169;28;20047;-28
2021/12/08 14:25:06;;;;;;;9.48;7.90;;;;;;;;;;5082898;28;20490;-33
2021/12/08 14:27:32;;;;;;;10.30;8.48;;;;;;;;;;5083048;28;20047;-32
2021/12/08 14:29:58;;;;;;;10.50;8.55;;;;;;;;;;5083153;28;20062;-33
2021/12/08 14:32:23;;;;;;;9.85;8.25;;;;;;;;;;5082709;28;20811;-32
2021/12/08 14:34:49;;;;;;;10.77;8.35;;;;;;;;;;5082671;28;20118;-28
2021/12/08 14:37:15;;;;;;;10.38;8.57;;;;;;;;;;5083662;28;20031;-30
2021/12/08 14:39:47;;;;;;;10.02;8.00;;;;;;;;;;5082789;28;20037;-30
2021/12/08 14:42:20;;;;;;;9.10;8.02;;;;;;;;;;5082425;28;20653;-34
2021/12/08 14:44:51;;;;;;;9.98;8.40;;;;;;;;;;5082546;28;20035;-30
2021/12/08 14:47:19;;;;;;;9.68;8.52;;;;;;;;;;5082151;28;20036;-28
2021/12/08 14:49:55;;;;;;;9.02;7.88;;;;;;;;;;5082497;28;20024;-30
2021/12/08 14:52:21;;;;;;;8.73;7.82;;;;;;;;;;5082876;28;20060;-33
2021/12/08 14:54:53;;;;;;;10.70;8.25;;;;;;;;;;5082437;28;20113;-31
2021/12/08 14:57:23;;;;;;;11.40;8.40;;;;;;;;;;5082753;28;20027;-30
2021/12/08 14:59:59;;;;;;;10.10;8.35;;;;;;;;;;5082844;28;20035;-32
2021/12/08 15:02:28;;;;;;;10.00;8.40;;;;;;;;;;5064540;28;20418;-30
2021/12/08 15:04:53;;;;;;;11.20;8.55;;;;;;;;;;5082186;28;20032;-31
2021/12/08 15:07:20;;;;;;;11.52;8.82;;;;;;;;;;5064340;28;20433;-32
2021/12/08 15:09:56;;;;;;;11.02;9.02;;;;;;;;;;5082226;28;20062;-34
2021/12/08 15:12:21;;;;;;;11.73;9.43;;;;;;;;;;5082819;28;20032;-28
2021/12/08 15:14:47;;;;;;;12.80;9.48;;;;;;;;;;5082214;28;20160;-30
2021/12/08 15:17:12;;;;;;;11.77;9.27;;;;;;;;;;5082533;28;20034;-29
2021/12/08 15:19:49;;;;;;;14.52;9.65;;;;;;;;;;5082022;28;20055;-30
2021/12/08 15:22:16;;;;;;;12.98;9.82;;;;;;;;;;5082349;28;20422;-34
2021/12/08 15:24:41;;;;;;;14.45;10.27;;;;;;;;;;5082128;28;20499;-34
2021/12/08 15:27:12;;;;;;;13.65;10.02;;;;;;;;;;5082707;28;20089;-32
2021/12/08 15:29:39;;;;;;;12.60;10.13;;;;;;;;;;5082327;28;20095;-31
2021/12/08 15:32:08;;;;;;;12.30;10.05;;;;;;;;;;5082774;28;20040;-28
2021/12/08 15:34:35;;;;;;;13.45;9.38;;;;;;;;;;5048379;28;20135;-32
2021/12/08 15:37:06;;;;;;;13.63;9.80;;;;;;;;;;5082065;28;20039;-30
2021/12/08 15:39:35;;;;;;;13.93;10.40;;;;;;;;;;5082100;28;20032;-32
2021/12/08 15:42:01;;;;;;;11.30;9.10;;;;;;;;;;5082586;28;20036;-32
2021/12/08 15:44:27;;;;;;;13.13;9.52;;;;;;;;;;5082408;28;20772;-28